Time;durP1;ratioP1;P1;durP2;ratioP2;P2;SDS_P1;SDS_P2;PMS_P1;PMS_P2;Temp;Humidity;BMP_temperature;BMP_pressure;BME280_temperature;BME280_humidity;BME280_pressure;Samples;Min_cycle;Max_cycle;Signal;HPM_P1;HPM_P2
2022/12/16 00:01:23;;;;;;;46.00;22.30;;;;;;;-0.32;72.63;98875.30;102048;1297;76822;-26
2022/12/16 00:03:55;;;;;;;33.00;18.20;;;;;;;-0.45;73.70;98868.62;102316;1302;73977;-26
2022/12/16 00:06:23;;;;;;;38.20;18.20;;;;;;;-0.54;73.53;98881.61;102012;1298;61147;-25
2022/12/16 00:08:50;;;;;;;19.50;9.90;;;;;;;-0.58;73.98;98886.02;102248;1301;61148;-25
2022/12/16 00:11:18;;;;;;;30.80;13.30;;;;;;;-0.09;74.03;98890.44;102003;1302;76690;-25
2022/12/16 00:13:46;;;;;;;28.10;15.40;;;;;;;0.67;73.23;98890.86;102278;1302;76941;-22
2022/12/16 00:16:14;;;;;;;27.60;15.50;;;;;;;0.89;71.48;98892.16;101998;1302;75209;-22
2022/12/16 00:18:41;;;;;;;24.10;12.90;;;;;;;0.82;71.43;98897.25;102239;1300;62062;-22
2022/12/16 00:21:08;;;;;;;16.10;9.70;;;;;;;0.67;71.96;98899.92;102293;1291;62849;-22
2022/12/16 00:23:37;;;;;;;17.80;10.10;;;;;;;0.49;72.21;98898.64;102289;1299;74598;-23
2022/12/16 00:26:05;;;;;;;16.20;9.60;;;;;;;0.23;72.11;98900.90;102363;1305;76930;-22
2022/12/16 00:28:32;;;;;;;19.50;10.50;;;;;;;-0.01;72.75;98895.77;102324;1299;73887;-22
2022/12/16 00:30:59;;;;;;;18.40;10.30;;;;;;;-0.22;73.55;98887.04;102290;1302;61824;-22
2022/12/16 00:33:27;;;;;;;20.50;12.00;;;;;;;-0.44;74.46;98880.02;102339;1296;61498;-24
2022/12/16 00:35:54;;;;;;;20.80;11.30;;;;;;;-0.60;75.01;98882.17;102322;1299;75334;-25
2022/12/16 00:38:21;;;;;;;8.40;5.70;;;;;;;-0.68;75.49;98889.63;102225;1295;77095;-24
2022/12/16 00:40:48;;;;;;;13.60;7.80;;;;;;;-0.15;75.44;98900.20;102056;1303;75284;-24
2022/12/16 00:43:19;;;;;;;13.50;7.90;;;;;;;0.55;74.18;98900.77;102313;1302;62666;-24
2022/12/16 00:45:46;;;;;;;16.20;9.30;;;;;;;0.71;73.10;98902.50;101991;1303;62794;-24
2022/12/16 00:48:13;;;;;;;12.60;7.30;;;;;;;0.56;72.69;98908.45;102036;1304;75336;-24
2022/12/16 00:50:40;;;;;;;11.40;6.80;;;;;;;0.33;72.77;98911.61;102221;1302;76885;-24
2022/12/16 00:53:07;;;;;;;10.80;7.10;;;;;;;0.06;73.02;98903.34;102336;1292;74922;-24
2022/12/16 00:55:34;;;;;;;12.40;7.90;;;;;;;-0.20;73.52;98899.23;102118;1302;61177;-24
2022/12/16 00:58:01;;;;;;;13.60;8.30;;;;;;;-0.40;74.26;98898.83;102178;1302;61848;-24
2022/12/16 01:00:28;;;;;;;14.20;8.70;;;;;;;-0.58;74.60;98896.08;102064;1302;76411;-24
2022/12/16 01:02:55;;;;;;;15.60;7.70;;;;;;;-0.70;75.25;98893.48;102055;1299;75796;-24
2022/12/16 01:05:25;;;;;;;15.70;9.30;;;;;;;-0.83;75.54;98891.21;102216;1298;75246;-24
2022/12/16 01:07:53;;;;;;;12.90;6.50;;;;;;;-0.98;76.74;98886.14;102198;1300;62803;-24
2022/12/16 01:10:21;;;;;;;14.10;6.30;;;;;;;-0.50;77.05;98895.94;102115;1300;61841;-24
2022/12/16 01:12:48;;;;;;;13.60;7.40;;;;;;;0.24;75.91;98895.59;102192;1300;76452;-24
2022/12/16 01:15:17;;;;;;;19.30;11.30;;;;;;;0.41;74.58;98891.80;102145;1301;75828;-25
2022/12/16 01:17:44;;;;;;;16.60;8.80;;;;;;;0.16;74.07;98884.98;102244;1301;74955;-24
2022/12/16 01:20:12;;;;;;;15.70;8.90;;;;;;;-0.02;75.25;98880.09;102165;1304;61913;-24
2022/12/16 01:22:39;;;;;;;13.10;8.00;;;;;;;-0.33;75.94;98869.89;102176;1294;61180;-24
2022/12/16 01:25:07;;;;;;;20.70;11.20;;;;;;;-0.69;77.17;98861.70;102128;1300;75370;-24
2022/12/16 01:27:34;;;;;;;21.20;12.90;;;;;;;-0.90;78.07;98855.33;102133;1300;76733;-24
2022/12/16 01:30:01;;;;;;;14.80;9.50;;;;;;;-1.05;78.64;98853.84;102120;1302;75545;-24
2022/12/16 01:32:28;;;;;;;14.50;7.50;;;;;;;-1.22;79.53;98857.86;102182;1303;61109;-24
2022/12/16 01:34:56;;;;;;;14.90;8.20;;;;;;;-0.91;79.98;98867.98;102221;1300;62760;-24
2022/12/16 01:37:23;;;;;;;15.50;9.40;;;;;;;-0.23;78.69;98875.63;102332;1297;76112;-24
2022/12/16 01:39:50;;;;;;;15.70;8.70;;;;;;;-0.11;77.53;98875.50;102021;1297;74409;-24
2022/12/16 01:42:19;;;;;;;11.20;6.70;;;;;;;-0.18;77.26;98875.61;102357;1299;75204;-24
2022/12/16 01:44:48;;;;;;;10.10;7.10;;;;;;;-0.46;77.77;98877.73;102055;1305;62012;-24
2022/12/16 01:47:35;;;;;;;10.60;6.30;;;;;;;-0.61;78.17;98875.55;102180;1302;63281;-24
2022/12/16 01:50:10;;;;;;;15.20;8.90;;;;;;;-0.86;78.96;98871.38;102158;1291;74822;-23
2022/12/16 01:52:40;;;;;;;13.50;8.60;;;;;;;-1.09;80.43;98863.20;102133;1301;77529;-23
2022/12/16 01:55:25;;;;;;;11.80;6.30;;;;;;;-1.25;81.62;98853.38;102163;1301;73851;-24
2022/12/16 01:58:10;;;;;;;13.10;7.80;;;;;;;-0.77;81.48;98850.23;101968;1303;61256;-24
2022/12/16 02:00:37;;;;;;;13.70;8.10;;;;;;;-0.22;80.07;98834.80;102059;1299;61164;-24
2022/12/16 02:03:04;;;;;;;12.50;8.00;;;;;;;-0.35;79.27;98835.48;102127;1296;75313;-24
2022/12/16 02:05:33;;;;;;;15.10;9.50;;;;;;;-0.47;79.86;98835.45;101989;1299;74529;-24
2022/12/16 02:08:17;;;;;;;13.20;8.00;;;;;;;-0.73;80.21;98834.07;101944;1302;75330;-24
2022/12/16 02:10:44;;;;;;;15.40;9.20;;;;;;;-1.02;81.73;98830.05;102268;1299;61884;-23
2022/12/16 02:13:37;;;;;;;12.70;7.80;;;;;;;-1.17;82.27;98822.61;102044;1299;61341;-24
2022/12/16 02:16:26;;;;;;;12.80;6.40;;;;;;;-1.28;82.87;98811.74;102032;1302;76162;-24
2022/12/16 02:19:12;;;;;;;16.10;8.90;;;;;;;-0.72;82.90;98812.38;102298;1298;76493;-24
2022/12/16 02:21:52;;;;;;;14.00;7.40;;;;;;;-0.22;80.84;98807.34;102281;1299;74254;-24
2022/12/16 02:24:42;;;;;;;14.00;7.40;;;;;;;-0.24;79.92;98804.52;102059;1299;62004;-24
2022/12/16 02:27:23;;;;;;;6.60;5.00;;;;;;;-0.39;80.33;98803.10;102312;1298;61805;-24
2022/12/16 02:30:04;;;;;;;15.30;8.20;;;;;;;-0.63;80.79;98805.92;102385;1299;76325;-23
2022/12/16 02:33:00;;;;;;;17.10;9.50;;;;;;;-0.91;82.12;98810.89;102077;1305;75343;-23
2022/12/16 02:35:58;;;;;;;11.50;6.20;;;;;;;-1.08;82.26;98820.71;102187;1302;74918;-23
2022/12/16 02:38:52;;;;;;;8.90;5.50;;;;;;;-1.28;82.94;98824.85;102302;1299;61187;-25
2022/12/16 02:41:52;;;;;;;13.50;6.90;;;;;;;-0.92;83.17;98832.21;102344;1299;62301;-25
2022/12/16 02:44:20;;;;;;;12.60;7.40;;;;;;;-0.19;80.50;98834.16;102092;1298;76449;-25
2022/12/16 02:46:52;;;;;;;7.50;4.10;;;;;;;-0.07;79.53;98841.73;102236;1301;75422;-26
2022/12/16 02:49:21;;;;;;;14.30;7.90;;;;;;;-0.21;78.82;98852.67;102076;1304;75117;-25
2022/12/16 02:51:48;;;;;;;10.70;6.70;;;;;;;-0.42;79.40;98862.91;102322;1296;61811;-25
2022/12/16 02:54:15;;;;;;;10.80;6.60;;;;;;;-0.62;79.92;98862.48;102242;1294;62425;-22
2022/12/16 02:57:06;;;;;;;12.60;7.30;;;;;;;-0.81;80.13;98863.69;101965;1302;75093;-23
2022/12/16 02:59:46;;;;;;;10.80;6.10;;;;;;;-1.01;80.49;98867.35;102045;1302;77003;-22
2022/12/16 03:02:16;;;;;;;10.50;4.90;;;;;;;-0.67;81.11;98872.05;102194;1299;75275;-22
2022/12/16 03:04:49;;;;;;;13.30;7.00;;;;;;;0.01;79.97;98872.27;102285;1294;61820;-23
2022/12/16 03:07:17;;;;;;;11.50;8.00;;;;;;;0.16;78.69;98868.61;102111;1296;62907;-23
2022/12/16 03:09:44;;;;;;;10.40;6.40;;;;;;;0.04;78.85;98866.54;102282;1297;76642;-23
2022/12/16 03:12:13;;;;;;;12.20;7.90;;;;;;;-0.16;78.86;98865.28;101991;1302;75653;-23
2022/12/16 03:14:42;;;;;;;13.60;7.60;;;;;;;-0.41;79.46;98867.30;102034;1301;75228;-23
2022/12/16 03:17:09;;;;;;;11.10;5.90;;;;;;;-0.62;80.06;98872.71;102024;1299;61113;-22
2022/12/16 03:19:37;;;;;;;11.00;5.50;;;;;;;-0.80;80.10;98871.15;102080;1294;62754;-22
2022/12/16 03:22:28;;;;;;;9.90;5.90;;;;;;;-0.89;80.75;98858.54;102127;1299;76387;-23
2022/12/16 03:24:55;;;;;;;12.80;6.50;;;;;;;-0.22;80.67;98858.53;101998;1299;76923;-23
2022/12/16 03:27:56;;;;;;;10.50;5.60;;;;;;;0.23;79.25;98857.55;102230;1299;74161;-23
2022/12/16 03:30:35;;;;;;;14.90;7.80;;;;;;;0.18;78.69;98867.52;102244;1291;62017;-23
2022/12/16 03:33:13;;;;;;;16.70;8.10;;;;;;;-0.03;78.78;98867.31;102111;1302;62828;-23
2022/12/16 03:35:53;;;;;;;16.90;9.20;;;;;;;-0.26;79.29;98859.38;102242;1302;75536;-23
2022/12/16 03:38:20;;;;;;;15.00;8.10;;;;;;;-0.53;79.99;98853.26;102089;1299;76736;-23
2022/12/16 03:40:47;;;;;;;7.70;5.40;;;;;;;-0.76;80.88;98849.00;102110;1302;75270;-23
2022/12/16 03:43:14;;;;;;;9.90;5.50;;;;;;;-0.92;81.27;98840.43;102270;1302;61490;-23
2022/12/16 03:45:43;;;;;;;14.40;7.60;;;;;;;-0.54;81.68;98848.38;101904;1299;62928;-23
2022/12/16 03:48:11;;;;;;;13.40;8.40;;;;;;;0.07;80.52;98845.23;101910;1301;76317;-23
2022/12/16 03:50:38;;;;;;;14.40;7.60;;;;;;;0.18;79.38;98836.75;101953;1304;76976;-23
2022/12/16 03:53:05;;;;;;;11.50;7.20;;;;;;;-0.01;79.20;98831.58;102112;1297;75069;-24
2022/12/16 03:55:32;;;;;;;14.80;10.00;;;;;;;-0.31;80.08;98824.08;102166;1301;61863;-24
2022/12/16 03:57:59;;;;;;;13.10;7.30;;;;;;;-0.48;80.61;98822.88;102227;1302;62561;-25
2022/12/16 04:00:26;;;;;;;14.40;8.10;;;;;;;-0.71;81.29;98816.95;102155;1302;76401;-24
2022/12/16 04:02:53;;;;;;;7.60;4.80;;;;;;;-0.82;81.59;98808.67;102149;1300;76849;-24
2022/12/16 04:05:21;;;;;;;10.50;6.20;;;;;;;-0.41;81.58;98799.91;102122;1302;75254;-24
2022/12/16 04:07:48;;;;;;;12.00;7.20;;;;;;;-0.10;80.45;98789.61;102097;1302;61797;-24
2022/12/16 04:10:15;;;;;;;11.10;6.50;;;;;;;-0.13;80.03;98783.94;102196;1298;61202;-24
2022/12/16 04:29:23;;;;;;;8.80;5.60;;;;;;;-0.25;80.17;98792.64;102225;1301;75809;-24
2022/12/16 04:31:50;;;;;;;13.70;8.70;;;;;;;-0.48;80.82;98790.14;102210;1300;75408;-24
2022/12/16 04:34:28;;;;;;;11.50;6.70;;;;;;;-0.72;81.66;98787.84;101918;1304;61831;-24
